sensor_id;sensor_type;location;lat;lon;timestamp;pressure;altitude;pressure_sealevel;temperature;humidity
12987;BME280;58897;51.960;5.582;2022-11-20T00:01:20;101098.72;;;-1.01;95.70
12987;BME280;58897;51.960;5.582;2022-11-20T00:03:47;101088.06;;;-0.99;95.93
12987;BME280;58897;51.960;5.582;2022-11-20T00:06:16;101084.63;;;-1.01;96.20
12987;BME280;58897;51.960;5.582;2022-11-20T00:08:44;101087.53;;;-1.06;95.92
12987;BME280;58897;51.960;5.582;2022-11-20T00:11:17;101072.66;;;-0.93;96.36
12987;BME280;58897;51.960;5.582;2022-11-20T00:13:45;101072.56;;;-0.91;95.76
12987;BME280;58897;51.960;5.582;2022-11-20T00:16:14;101081.44;;;-1.08;94.67
12987;BME280;58897;51.960;5.582;2022-11-20T00:18:41;101072.38;;;-1.04;94.68
12987;BME280;58897;51.960;5.582;2022-11-20T00:21:13;101075.88;;;-1.03;93.76
12987;BME280;58897;51.960;5.582;2022-11-20T00:23:41;101067.25;;;-1.07;95.82
12987;BME280;58897;51.960;5.582;2022-11-20T00:26:10;101066.84;;;-0.99;95.07
12987;BME280;58897;51.960;5.582;2022-11-20T00:28:37;101057.44;;;-1.05;95.10
12987;BME280;58897;51.960;5.582;2022-11-20T00:31:12;101072.38;;;-1.04;95.83
12987;BME280;58897;51.960;5.582;2022-11-20T00:33:39;101070.53;;;-1.02;96.46
12987;BME280;58897;51.960;5.582;2022-11-20T00:36:09;101072.22;;;-1.01;94.85
12987;BME280;58897;51.960;5.582;2022-11-20T00:38:36;101072.47;;;-1.05;95.54
12987;BME280;58897;51.960;5.582;2022-11-20T00:41:05;101080.41;;;-1.21;96.11
12987;BME280;58897;51.960;5.582;2022-11-20T00:43:33;101084.53;;;-1.15;96.01
12987;BME280;58897;51.960;5.582;2022-11-20T00:46:09;101069.66;;;-1.18;96.07
12987;BME280;58897;51.960;5.582;2022-11-20T00:48:35;101074.59;;;-1.12;95.74
12987;BME280;58897;51.960;5.582;2022-11-20T00:51:02;101078.38;;;-1.16;96.79
12987;BME280;58897;51.960;5.582;2022-11-20T00:53:28;101068.25;;;-1.09;96.30
12987;BME280;58897;51.960;5.582;2022-11-20T00:55:59;101067.22;;;-1.23;96.09
12987;BME280;58897;51.960;5.582;2022-11-20T00:58:32;101064.75;;;-1.26;96.86
12987;BME280;58897;51.960;5.582;2022-11-20T01:01:07;101059.53;;;-1.11;95.78
12987;BME280;58897;51.960;5.582;2022-11-20T01:03:36;101050.94;;;-1.15;96.66
12987;BME280;58897;51.960;5.582;2022-11-20T01:06:06;101054.19;;;-1.10;96.84
12987;BME280;58897;51.960;5.582;2022-11-20T01:08:35;101050.34;;;-1.04;96.93
12987;BME280;58897;51.960;5.582;2022-11-20T01:11:07;101058.19;;;-1.18;96.80
12987;BME280;58897;51.960;5.582;2022-11-20T01:13:35;101042.78;;;-1.12;96.49
12987;BME280;58897;51.960;5.582;2022-11-20T01:16:10;101050.94;;;-1.15;97.48
12987;BME280;58897;51.960;5.582;2022-11-20T01:18:38;101050.66;;;-1.10;97.81
12987;BME280;58897;51.960;5.582;2022-11-20T01:21:11;101056.56;;;-1.21;97.16
12987;BME280;58897;51.960;5.582;2022-11-20T01:23:40;101043.91;;;-1.16;97.22
12987;BME280;58897;51.960;5.582;2022-11-20T01:26:09;101050.13;;;-1.17;97.67
12987;BME280;58897;51.960;5.582;2022-11-20T01:28:36;101049.97;;;-1.14;97.55
12987;BME280;58897;51.960;5.582;2022-11-20T01:33:48;101056.44;;;-1.35;98.31
12987;BME280;58897;51.960;5.582;2022-11-20T01:36:17;101055.34;;;-1.31;97.74
12987;BME280;58897;51.960;5.582;2022-11-20T01:38:43;101052.41;;;-1.42;98.62
12987;BME280;58897;51.960;5.582;2022-11-20T01:41:11;101049.84;;;-1.44;98.54
12987;BME280;58897;51.960;5.582;2022-11-20T01:43:58;101051.97;;;-1.50;98.92
12987;BME280;58897;51.960;5.582;2022-11-20T01:46:25;101043.94;;;-1.49;98.29
12987;BME280;58897;51.960;5.582;2022-11-20T01:49:02;101039.66;;;-1.51;98.54
12987;BME280;58897;51.960;5.582;2022-11-20T01:51:39;101044.53;;;-1.59;98.81
12987;BME280;58897;51.960;5.582;2022-11-20T01:54:13;101045.91;;;-1.52;98.34
12987;BME280;58897;51.960;5.582;2022-11-20T01:56:44;101050.06;;;-1.48;97.83
12987;BME280;58897;51.960;5.582;2022-11-20T01:59:13;101049.00;;;-1.61;98.83
12987;BME280;58897;51.960;5.582;2022-11-20T02:01:42;101040.19;;;-1.45;99.43
12987;BME280;58897;51.960;5.582;2022-11-20T02:04:09;101040.47;;;-1.34;98.60
12987;BME280;58897;51.960;5.582;2022-11-20T02:06:41;101040.38;;;-1.32;98.41
12987;BME280;58897;51.960;5.582;2022-11-20T02:09:08;101047.66;;;-1.36;98.06
12987;BME280;58897;51.960;5.582;2022-11-20T02:11:35;101056.25;;;-1.48;98.79
12987;BME280;58897;51.960;5.582;2022-11-20T02:14:01;101054.00;;;-1.55;99.59
12987;BME280;58897;51.960;5.582;2022-11-20T02:16:35;101057.31;;;-1.67;98.64
12987;BME280;58897;51.960;5.582;2022-11-20T02:19:06;101053.09;;;-1.71;99.59
12987;BME280;58897;51.960;5.582;2022-11-20T02:24:32;101033.47;;;-1.67;98.81
12987;BME280;58897;51.960;5.582;2022-11-20T02:27:04;101033.47;;;-1.67;98.84
12987;BME280;58897;51.960;5.582;2022-11-20T02:29:36;101050.91;;;-1.63;99.36
12987;BME280;58897;51.960;5.582;2022-11-20T02:32:04;101039.44;;;-1.64;100.00
12987;BME280;58897;51.960;5.582;2022-11-20T02:34:30;101029.09;;;-1.68;98.95
12987;BME280;58897;51.960;5.582;2022-11-20T02:36:58;101022.38;;;-1.58;99.74
12987;BME280;58897;51.960;5.582;2022-11-20T02:39:27;101018.84;;;-1.59;98.45
12987;BME280;58897;51.960;5.582;2022-11-20T02:41:55;101016.31;;;-1.60;99.59
12987;BME280;58897;51.960;5.582;2022-11-20T02:44:22;101025.78;;;-1.56;99.08
12987;BME280;58897;51.960;5.582;2022-11-20T02:46:48;101010.59;;;-1.53;98.82
12987;BME280;58897;51.960;5.582;2022-11-20T02:49:15;101011.41;;;-1.68;100.00
12987;BME280;58897;51.960;5.582;2022-11-20T02:51:43;101021.44;;;-1.57;99.30
12987;BME280;58897;51.960;5.582;2022-11-20T02:54:10;101020.75;;;-1.61;99.05
12987;BME280;58897;51.960;5.582;2022-11-20T02:56:38;101019.44;;;-1.69;99.72
12987;BME280;58897;51.960;5.582;2022-11-20T02:59:04;101027.22;;;-1.66;98.90
12987;BME280;58897;51.960;5.582;2022-11-20T03:01:31;101025.22;;;-1.78;98.45
12987;BME280;58897;51.960;5.582;2022-11-20T03:03:57;101019.69;;;-1.74;98.85
12987;BME280;58897;51.960;5.582;2022-11-20T03:06:24;101023.34;;;-1.76;98.83
12987;BME280;58897;51.960;5.582;2022-11-20T03:08:50;101010.03;;;-1.75;99.08
12987;BME280;58897;51.960;5.582;2022-11-20T03:11:17;101019.16;;;-1.80;99.27
12987;BME280;58897;51.960;5.582;2022-11-20T03:13:43;101015.81;;;-1.84;99.00
12987;BME280;58897;51.960;5.582;2022-11-20T03:16:13;101009.94;;;-1.73;98.66
12987;BME280;58897;51.960;5.582;2022-11-20T03:18:41;101006.53;;;-1.93;98.41
12987;BME280;58897;51.960;5.582;2022-11-20T03:21:09;101008.13;;;-1.89;98.16
12987;BME280;58897;51.960;5.582;2022-11-20T03:23:36;101003.06;;;-1.93;99.99
12987;BME280;58897;51.960;5.582;2022-11-20T03:26:09;101008.06;;;-2.04;99.69
12987;BME280;58897;51.960;5.582;2022-11-20T03:28:36;101006.94;;;-2.00;100.00
12987;BME280;58897;51.960;5.582;2022-11-20T03:31:11;101000.69;;;-1.82;99.70
12987;BME280;58897;51.960;5.582;2022-11-20T03:33:38;101000.41;;;-1.93;99.54
12987;BME280;58897;51.960;5.582;2022-11-20T03:36:08;101003.16;;;-2.29;100.00
12987;BME280;58897;51.960;5.582;2022-11-20T03:38:35;101005.00;;;-1.97;100.00
12987;BME280;58897;51.960;5.582;2022-11-20T03:41:05;100993.66;;;-2.16;100.00
12987;BME280;58897;51.960;5.582;2022-11-20T03:43:33;100991.28;;;-1.88;100.00
12987;BME280;58897;51.960;5.582;2022-11-20T03:46:00;100991.72;;;-2.12;100.00
12987;BME280;58897;51.960;5.582;2022-11-20T03:48:27;100996.97;;;-1.95;100.00
12987;BME280;58897;51.960;5.582;2022-11-20T03:51:09;100982.44;;;-2.04;100.00
12987;BME280;58897;51.960;5.582;2022-11-20T03:53:35;100985.97;;;-1.88;100.00
12987;BME280;58897;51.960;5.582;2022-11-20T03:56:02;100991.88;;;-2.15;100.00
12987;BME280;58897;51.960;5.582;2022-11-20T03:58:29;100987.75;;;-2.21;100.00
12987;BME280;58897;51.960;5.582;2022-11-20T04:00:55;100991.09;;;-2.17;100.00
12987;BME280;58897;51.960;5.582;2022-11-20T04:03:22;100990.53;;;-2.07;100.00
12987;BME280;58897;51.960;5.582;2022-11-20T04:05:48;100981.59;;;-2.04;100.00
12987;BME280;58897;51.960;5.582;2022-11-20T04:08:15;100978.13;;;-1.89;100.00
12987;BME280;58897;51.960;5.582;2022-11-20T04:10:41;100972.53;;;-2.00;100.00
12987;BME280;58897;51.960;5.582;2022-11-20T04:13:08;100973.50;;;-2.18;100.00
12987;BME280;58897;51.960;5.582;2022-11-20T04:15:34;100981.88;;;-1.93;100.00
12987;BME280;58897;51.960;5.582;2022-11-20T04:18:03;100974.72;;;-1.91;100.00
12987;BME280;58897;51.960;5.582;2022-11-20T04:20:30;100964.72;;;-1.86;100.00
12987;BME280;58897;51.960;5.582;2022-11-20T04:22:56;100966.72;;;-2.07;100.00
12987;BME280;58897;51.960;5.582;2022-11-20T04:25:23;100971.16;;;-2.07;100.00
12987;BME280;58897;51.960;5.582;2022-11-20T04:27:49;100972.03;;;-2.07;100.00
12987;BME280;58897;51.960;5.582;2022-11-20T04:30:16;100963.66;;;-1.99;100.00
12987;BME280;58897;51.960;5.582;2022-11-20T04:32:42;100971.50;;;-1.80;100.00
12987;BME280;58897;51.960;5.582;2022-11-20T04:35:09;100958.50;;;-1.69;100.00
12987;BME280;58897;51.960;5.582;2022-11-20T04:37:35;100961.09;;;-2.01;100.00
12987;BME280;58897;51.960;5.582;2022-11-20T04:40:02;100960.94;;;-1.98;100.00
12987;BME280;58897;51.960;5.582;2022-11-20T04:42:28;100947.47;;;-1.93;100.00
12987;BME280;58897;51.960;5.582;2022-11-20T04:44:55;100949.72;;;-2.03;100.00
12987;BME280;58897;51.960;5.582;2022-11-20T04:47:22;100951.28;;;-1.99;100.00
12987;BME280;58897;51.960;5.582;2022-11-20T04:49:48;100944.06;;;-2.12;100.00
12987;BME280;58897;51.960;5.582;2022-11-20T04:52:15;100941.78;;;-2.03;100.00
12987;BME280;58897;51.960;5.582;2022-11-20T04:54:41;100953.50;;;-2.07;100.00
12987;BME280;58897;51.960;5.582;2022-11-20T04:57:08;100948.56;;;-1.97;100.00
12987;BME280;58897;51.960;5.582;2022-11-20T04:59:40;100926.69;;;-1.85;100.00
12987;BME280;58897;51.960;5.582;2022-11-20T05:02:06;100936.91;;;-2.10;100.00
12987;BME280;58897;51.960;5.582;2022-11-20T05:04:33;100934.19;;;-2.09;100.00
12987;BME280;58897;51.960;5.582;2022-11-20T05:06:59;100941.28;;;-2.09;100.00
12987;BME280;58897;51.960;5.582;2022-11-20T05:09:26;100952.72;;;-2.26;100.00
12987;BME280;58897;51.960;5.582;2022-11-20T05:11:52;100948.34;;;-2.10;100.00
12987;BME280;58897;51.960;5.582;2022-11-20T05:14:18;100942.19;;;-2.10;100.00
12987;BME280;58897;51.960;5.582;2022-11-20T05:16:45;100931.13;;;-2.01;100.00
12987;BME280;58897;51.960;5.582;2022-11-20T05:19:12;100922.91;;;-2.29;100.00
12987;BME280;58897;51.960;5.582;2022-11-20T05:21:38;100925.22;;;-2.06;100.00
12987;BME280;58897;51.960;5.582;2022-11-20T05:24:05;100915.06;;;-1.98;100.00
12987;BME280;58897;51.960;5.582;2022-11-20T05:26:32;100930.53;;;-2.23;100.00
12987;BME280;58897;51.960;5.582;2022-11-20T05:28:58;100926.63;;;-2.16;100.00
12987;BME280;58897;51.960;5.582;2022-11-20T05:31:25;100924.44;;;-2.08;100.00
12987;BME280;58897;51.960;5.582;2022-11-20T05:33:54;100906.75;;;-2.08;100.00
12987;BME280;58897;51.960;5.582;2022-11-20T05:36:21;100904.00;;;-1.89;100.00
12987;BME280;58897;51.960;5.582;2022-11-20T05:38:48;100897.06;;;-1.92;100.00
12987;BME280;58897;51.960;5.582;2022-11-20T05:41:18;100900.00;;;-1.80;100.00
12987;BME280;58897;51.960;5.582;2022-11-20T05:43:47;100897.06;;;-1.92;100.00
12987;BME280;58897;51.960;5.582;2022-11-20T05:46:15;100896.03;;;-1.89;100.00
12987;BME280;58897;51.960;5.582;2022-11-20T05:48:43;100897.56;;;-2.01;100.00
12987;BME280;58897;51.960;5.582;2022-11-20T05:51:12;100900.63;;;-1.93;100.00
12987;BME280;58897;51.960;5.582;2022-11-20T05:53:39;100905.78;;;-1.90;100.00
12987;BME280;58897;51.960;5.582;2022-11-20T05:56:16;100914.56;;;-2.37;100.00
12987;BME280;58897;51.960;5.582;2022-11-20T05:58:44;100920.97;;;-2.09;100.00
12987;BME280;58897;51.960;5.582;2022-11-20T06:01:17;100932.88;;;-2.17;100.00
12987;BME280;58897;51.960;5.582;2022-11-20T06:03:45;100932.66;;;-1.97;100.00
12987;BME280;58897;51.960;5.582;2022-11-20T06:06:14;100933.97;;;-1.89;100.00
12987;BME280;58897;51.960;5.582;2022-11-20T06:08:41;100938.16;;;-1.84;100.00
12987;BME280;58897;51.960;5.582;2022-11-20T06:11:09;100940.19;;;-1.90;100.00
12987;BME280;58897;51.960;5.582;2022-11-20T06:13:37;100949.31;;;-1.95;100.00
12987;BME280;58897;51.960;5.582;2022-11-20T06:16:08;100945.13;;;-1.99;100.00
12987;BME280;58897;51.960;5.582;2022-11-20T06:18:34;100950.63;;;-1.87;100.00
12987;BME280;58897;51.960;5.582;2022-11-20T06:21:02;100948.41;;;-1.94;100.00
12987;BME280;58897;51.960;5.582;2022-11-20T06:23:30;100951.59;;;-2.05;100.00
12987;BME280;58897;51.960;5.582;2022-11-20T06:26:00;100955.47;;;-2.27;100.00
12987;BME280;58897;51.960;5.582;2022-11-20T06:28:27;100963.34;;;-2.43;100.00
12987;BME280;58897;51.960;5.582;2022-11-20T06:30:54;100956.16;;;-2.24;100.00
12987;BME280;58897;51.960;5.582;2022-11-20T06:33:20;100955.69;;;-2.15;100.00
12987;BME280;58897;51.960;5.582;2022-11-20T06:35:47;100955.84;;;-2.18;100.00
12987;BME280;58897;51.960;5.582;2022-11-20T06:38:13;100948.19;;;-2.24;100.00
12987;BME280;58897;51.960;5.582;2022-11-20T06:40:41;100948.72;;;-2.00;100.00
12987;BME280;58897;51.960;5.582;2022-11-20T06:43:11;100946.50;;;-2.25;100.00
12987;BME280;58897;51.960;5.582;2022-11-20T06:45:37;100942.50;;;-1.99;100.00
12987;BME280;58897;51.960;5.582;2022-11-20T06:48:04;100943.34;;;-1.99;100.00
12987;BME280;58897;51.960;5.582;2022-11-20T06:50:30;100952.13;;;-1.98;100.00
12987;BME280;58897;51.960;5.582;2022-11-20T06:53:00;100955.31;;;-1.92;100.00
12987;BME280;58897;51.960;5.582;2022-11-20T06:55:27;100946.09;;;-1.84;100.00
12987;BME280;58897;51.960;5.582;2022-11-20T06:57:53;100945.53;;;-2.07;100.00
12987;BME280;58897;51.960;5.582;2022-11-20T07:00:21;100946.41;;;-2.06;100.00
12987;BME280;58897;51.960;5.582;2022-11-20T07:02:47;100940.94;;;-2.03;100.00
12987;BME280;58897;51.960;5.582;2022-11-20T07:05:14;100942.56;;;-2.01;100.00
12987;BME280;58897;51.960;5.582;2022-11-20T07:07:40;100935.00;;;-1.91;100.00
12987;BME280;58897;51.960;5.582;2022-11-20T07:10:07;100929.69;;;-1.91;100.00
12987;BME280;58897;51.960;5.582;2022-11-20T07:12:34;100930.31;;;-1.86;100.00
12987;BME280;58897;51.960;5.582;2022-11-20T07:15:00;100921.59;;;-1.88;100.00
12987;BME280;58897;51.960;5.582;2022-11-20T07:17:27;100927.81;;;-1.89;100.00
12987;BME280;58897;51.960;5.582;2022-11-20T07:19:53;100923.22;;;-1.85;100.00
12987;BME280;58897;51.960;5.582;2022-11-20T07:22:20;100915.47;;;-1.73;100.00
12987;BME280;58897;51.960;5.582;2022-11-20T07:24:48;100921.69;;;-1.74;100.00
12987;BME280;58897;51.960;5.582;2022-11-20T07:27:14;100922.88;;;-1.64;100.00
12987;BME280;58897;51.960;5.582;2022-11-20T07:29:41;100922.56;;;-1.58;100.00
12987;BME280;58897;51.960;5.582;2022-11-20T07:32:07;100920.19;;;-1.62;100.00
12987;BME280;58897;51.960;5.582;2022-11-20T07:34:33;100924.94;;;-1.69;100.00
12987;BME280;58897;51.960;5.582;2022-11-20T07:37:00;100920.34;;;-1.65;100.00
12987;BME280;58897;51.960;5.582;2022-11-20T07:39:34;100917.34;;;-1.59;100.00
12987;BME280;58897;51.960;5.582;2022-11-20T07:42:00;100905.03;;;-1.45;100.00
12987;BME280;58897;51.960;5.582;2022-11-20T07:44:27;100910.00;;;-1.39;100.00
12987;BME280;58897;51.960;5.582;2022-11-20T07:46:53;100902.72;;;-1.35;100.00
12987;BME280;58897;51.960;5.582;2022-11-20T07:49:20;100911.09;;;-1.43;100.00
12987;BME280;58897;51.960;5.582;2022-11-20T07:51:46;100905.63;;;-1.24;100.00
12987;BME280;58897;51.960;5.582;2022-11-20T07:54:17;100907.66;;;-1.13;100.00
12987;BME280;58897;51.960;5.582;2022-11-20T07:56:43;100909.38;;;-1.12;100.00
12987;BME280;58897;51.960;5.582;2022-11-20T07:59:10;100913.81;;;-0.97;100.00
12987;BME280;58897;51.960;5.582;2022-11-20T08:01:38;100920.31;;;-1.03;100.00
12987;BME280;58897;51.960;5.582;2022-11-20T08:04:05;100923.25;;;-1.07;100.00
12987;BME280;58897;51.960;5.582;2022-11-20T08:06:31;100916.47;;;-0.97;100.00
12987;BME280;58897;51.960;5.582;2022-11-20T08:08:58;100918.94;;;-0.94;100.00
12987;BME280;58897;51.960;5.582;2022-11-20T08:11:25;100917.50;;;-1.00;100.00
12987;BME280;58897;51.960;5.582;2022-11-20T08:14:10;100920.66;;;-1.09;100.00
12987;BME280;58897;51.960;5.582;2022-11-20T08:16:44;100908.94;;;-0.75;100.00
12987;BME280;58897;51.960;5.582;2022-11-20T08:19:13;100909.41;;;-0.39;100.00
12987;BME280;58897;51.960;5.582;2022-11-20T08:21:40;100911.47;;;-0.44;100.00
12987;BME280;58897;51.960;5.582;2022-11-20T08:24:07;100916.25;;;-0.35;100.00
12987;BME280;58897;51.960;5.582;2022-11-20T08:26:38;100909.16;;;-0.34;100.00
12987;BME280;58897;51.960;5.582;2022-11-20T08:29:05;100907.09;;;-0.73;100.00
12987;BME280;58897;51.960;5.582;2022-11-20T08:31:32;100913.72;;;-0.66;100.00
12987;BME280;58897;51.960;5.582;2022-11-20T08:33:58;100909.81;;;-0.75;100.00
12987;BME280;58897;51.960;5.582;2022-11-20T08:36:25;100909.97;;;-0.48;100.00
12987;BME280;58897;51.960;5.582;2022-11-20T08:38:54;100902.59;;;-0.73;100.00
12987;BME280;58897;51.960;5.582;2022-11-20T08:41:21;100908.25;;;-0.63;100.00
12987;BME280;58897;51.960;5.582;2022-11-20T08:44:05;100898.97;;;-0.56;100.00
12987;BME280;58897;51.960;5.582;2022-11-20T08:46:37;100904.38;;;-0.57;100.00
12987;BME280;58897;51.960;5.582;2022-11-20T08:49:06;100906.00;;;-0.41;100.00
12987;BME280;58897;51.960;5.582;2022-11-20T08:51:33;100910.50;;;-0.57;100.00
12987;BME280;58897;51.960;5.582;2022-11-20T08:53:59;100909.81;;;-0.45;100.00
12987;BME280;58897;51.960;5.582;2022-11-20T08:56:27;100904.88;;;-0.37;100.00
12987;BME280;58897;51.960;5.582;2022-11-20T08:58:53;100899.38;;;-0.34;100.00
12987;BME280;58897;51.960;5.582;2022-11-20T09:01:40;100897.38;;;-0.44;100.00
12987;BME280;58897;51.960;5.582;2022-11-20T09:04:06;100890.25;;;-0.58;100.00
12987;BME280;58897;51.960;5.582;2022-11-20T09:06:33;100892.22;;;-0.62;100.00
12987;BME280;58897;51.960;5.582;2022-11-20T09:08:59;100901.03;;;-0.61;100.00
12987;BME280;58897;51.960;5.582;2022-11-20T09:11:32;100896.34;;;-0.42;100.00
12987;BME280;58897;51.960;5.582;2022-11-20T09:13:58;100895.50;;;-0.28;100.00
12987;BME280;58897;51.960;5.582;2022-11-20T09:16:25;100891.78;;;-0.26;100.00
12987;BME280;58897;51.960;5.582;2022-11-20T09:18:51;100888.97;;;-0.23;100.00
12987;BME280;58897;51.960;5.582;2022-11-20T09:21:37;100883.94;;;-0.27;100.00
12987;BME280;58897;51.960;5.582;2022-11-20T09:24:04;100873.03;;;-0.09;100.00
12987;BME280;58897;51.960;5.582;2022-11-20T09:26:31;100865.81;;;-0.07;100.00
12987;BME280;58897;51.960;5.582;2022-11-20T09:28:57;100860.59;;;0.06;100.00
12987;BME280;58897;51.960;5.582;2022-11-20T09:31:25;100852.06;;;0.15;100.00
12987;BME280;58897;51.960;5.582;2022-11-20T09:33:52;100844.59;;;0.34;100.00
12987;BME280;58897;51.960;5.582;2022-11-20T09:36:18;100852.13;;;0.28;100.00
12987;BME280;58897;51.960;5.582;2022-11-20T09:38:46;100852.00;;;0.43;100.00
12987;BME280;58897;51.960;5.582;2022-11-20T09:44:30;100843.47;;;0.38;100.00
12987;BME280;58897;51.960;5.582;2022-11-20T09:47:25;100841.31;;;0.57;100.00
12987;BME280;58897;51.960;5.582;2022-11-20T09:56:00;100851.84;;;0.32;100.00
12987;BME280;58897;51.960;5.582;2022-11-20T09:58:42;100851.81;;;0.46;100.00
12987;BME280;58897;51.960;5.582;2022-11-20T10:01:18;100847.78;;;0.53;100.00
12987;BME280;58897;51.960;5.582;2022-11-20T10:06:30;100845.72;;;0.98;100.00
12987;BME280;58897;51.960;5.582;2022-11-20T10:24:39;100803.28;;;1.97;100.00
12987;BME280;58897;51.960;5.582;2022-11-20T10:30:18;100800.00;;;1.81;100.00
12987;BME280;58897;51.960;5.582;2022-11-20T10:32:52;100783.91;;;1.82;100.00
12987;BME280;58897;51.960;5.582;2022-11-20T10:35:26;100772.72;;;1.90;100.00
12987;BME280;58897;51.960;5.582;2022-11-20T10:37:57;100774.66;;;1.63;100.00
12987;BME280;58897;51.960;5.582;2022-11-20T10:40:38;100766.34;;;1.67;100.00
12987;BME280;58897;51.960;5.582;2022-11-20T10:43:12;100765.44;;;1.43;100.00
12987;BME280;58897;51.960;5.582;2022-11-20T10:45:48;100764.03;;;1.50;100.00
12987;BME280;58897;51.960;5.582;2022-11-20T10:48:25;100759.13;;;1.69;100.00
12987;BME280;58897;51.960;5.582;2022-11-20T10:54:22;100753.56;;;1.60;100.00
12987;BME280;58897;51.960;5.582;2022-11-20T10:56:51;100745.16;;;1.66;100.00
12987;BME280;58897;51.960;5.582;2022-11-20T11:02:23;100729.00;;;1.44;100.00
12987;BME280;58897;51.960;5.582;2022-11-20T11:04:52;100711.94;;;1.46;100.00
12987;BME280;58897;51.960;5.582;2022-11-20T11:07:22;100718.19;;;1.70;100.00
12987;BME280;58897;51.960;5.582;2022-11-20T11:09:53;100715.69;;;1.93;100.00
12987;BME280;58897;51.960;5.582;2022-11-20T11:12:21;100711.28;;;1.68;100.00
12987;BME280;58897;51.960;5.582;2022-11-20T11:14:50;100711.75;;;1.98;100.00
12987;BME280;58897;51.960;5.582;2022-11-20T11:20:14;100704.34;;;2.02;100.00
12987;BME280;58897;51.960;5.582;2022-11-20T11:25:29;100676.41;;;2.07;100.00
12987;BME280;58897;51.960;5.582;2022-11-20T11:27:58;100672.22;;;2.16;100.00
12987;BME280;58897;51.960;5.582;2022-11-20T11:30:27;100680.31;;;2.14;100.00
12987;BME280;58897;51.960;5.582;2022-11-20T11:33:05;100674.66;;;2.19;100.00
12987;BME280;58897;51.960;5.582;2022-11-20T11:35:32;100668.84;;;2.14;100.00
12987;BME280;58897;51.960;5.582;2022-11-20T11:38:11;100659.13;;;2.13;100.00
12987;BME280;58897;51.960;5.582;2022-11-20T11:40:39;100657.25;;;2.02;100.00
12987;BME280;58897;51.960;5.582;2022-11-20T11:43:17;100654.97;;;2.09;100.00
12987;BME280;58897;51.960;5.582;2022-11-20T11:46:21;100657.19;;;2.15;100.00
12987;BME280;58897;51.960;5.582;2022-11-20T11:48:58;100658.59;;;2.31;100.00
12987;BME280;58897;51.960;5.582;2022-11-20T11:51:34;100664.84;;;2.19;100.00
12987;BME280;58897;51.960;5.582;2022-11-20T11:54:15;100658.16;;;2.14;100.00
12987;BME280;58897;51.960;5.582;2022-11-20T11:56:43;100649.63;;;2.09;100.00
12987;BME280;58897;51.960;5.582;2022-11-20T11:59:20;100640.81;;;2.32;100.00
12987;BME280;58897;51.960;5.582;2022-11-20T12:01:57;100636.72;;;2.15;100.00
12987;BME280;58897;51.960;5.582;2022-11-20T12:04:51;100629.03;;;2.00;100.00
12987;BME280;58897;51.960;5.582;2022-11-20T12:07:32;100618.00;;;2.28;100.00
12987;BME280;58897;51.960;5.582;2022-11-20T12:10:22;100624.34;;;2.14;100.00
12987;BME280;58897;51.960;5.582;2022-11-20T12:13:01;100610.13;;;2.26;100.00
12987;BME280;58897;51.960;5.582;2022-11-20T12:15:30;100604.88;;;2.25;100.00
12987;BME280;58897;51.960;5.582;2022-11-20T12:17:57;100600.38;;;2.14;100.00
12987;BME280;58897;51.960;5.582;2022-11-20T12:20:28;100600.72;;;2.10;100.00
12987;BME280;58897;51.960;5.582;2022-11-20T12:25:44;100592.66;;;2.22;100.00
12987;BME280;58897;51.960;5.582;2022-11-20T12:28:22;100591.06;;;2.20;100.00
12987;BME280;58897;51.960;5.582;2022-11-20T12:31:01;100591.50;;;2.03;100.00
12987;BME280;58897;51.960;5.582;2022-11-20T12:33:52;100593.72;;;1.85;100.00
12987;BME280;58897;51.960;5.582;2022-11-20T12:36:44;100584.53;;;1.89;100.00
12987;BME280;58897;51.960;5.582;2022-11-20T12:39:25;100588.66;;;1.93;100.00
12987;BME280;58897;51.960;5.582;2022-11-20T12:47:55;100568.41;;;1.91;100.00
12987;BME280;58897;51.960;5.582;2022-11-20T12:56:23;100519.00;;;2.21;100.00
12987;BME280;58897;51.960;5.582;2022-11-20T12:59:06;100511.97;;;2.20;100.00
12987;BME280;58897;51.960;5.582;2022-11-20T13:01:42;100516.41;;;2.09;100.00
12987;BME280;58897;51.960;5.582;2022-11-20T13:07:00;100505.19;;;2.27;100.00
12987;BME280;58897;51.960;5.582;2022-11-20T13:09:28;100511.38;;;2.28;100.00
12987;BME280;58897;51.960;5.582;2022-11-20T13:12:03;100505.56;;;2.34;100.00
12987;BME280;58897;51.960;5.582;2022-11-20T13:14:41;100503.13;;;2.20;100.00
12987;BME280;58897;51.960;5.582;2022-11-20T13:17:33;100496.25;;;2.39;100.00
12987;BME280;58897;51.960;5.582;2022-11-20T13:20:04;100487.28;;;2.40;100.00
12987;BME280;58897;51.960;5.582;2022-11-20T13:22:51;100483.88;;;2.27;100.00
12987;BME280;58897;51.960;5.582;2022-11-20T13:25:31;100486.41;;;2.40;100.00
12987;BME280;58897;51.960;5.582;2022-11-20T13:28:04;100477.47;;;2.41;100.00
12987;BME280;58897;51.960;5.582;2022-11-20T13:30:51;100478.06;;;2.33;100.00
12987;BME280;58897;51.960;5.582;2022-11-20T13:36:23;100470.03;;;2.00;100.00
12987;BME280;58897;51.960;5.582;2022-11-20T13:38:52;100465.31;;;2.15;100.00
12987;BME280;58897;51.960;5.582;2022-11-20T13:41:33;100454.69;;;2.26;100.00
12987;BME280;58897;51.960;5.582;2022-11-20T13:44:29;100448.25;;;2.28;100.00
12987;BME280;58897;51.960;5.582;2022-11-20T13:46:55;100436.97;;;2.25;100.00
12987;BME280;58897;51.960;5.582;2022-11-20T13:49:32;100429.84;;;2.25;100.00
12987;BME280;58897;51.960;5.582;2022-11-20T14:00:20;100410.19;;;2.37;100.00
12987;BME280;58897;51.960;5.582;2022-11-20T14:02:59;100414.69;;;2.26;100.00
12987;BME280;58897;51.960;5.582;2022-11-20T14:05:28;100410.56;;;2.33;100.00
12987;BME280;58897;51.960;5.582;2022-11-20T14:07:57;100409.25;;;2.38;100.00
12987;BME280;58897;51.960;5.582;2022-11-20T14:10:28;100409.25;;;2.27;100.00
12987;BME280;58897;51.960;5.582;2022-11-20T14:12:58;100412.16;;;2.35;100.00
12987;BME280;58897;51.960;5.582;2022-11-20T14:15:35;100407.06;;;2.21;100.00
12987;BME280;58897;51.960;5.582;2022-11-20T14:18:14;100406.00;;;2.24;100.00